Terminal Aerodrome Forecast
Issued by NWS

Home | Current Version | Previous Version | Text Only | Print | Product List | Glossary On
Versions: 1 2 3 4 5 6 7 8 9 10 11 12 13 14 15 16 17 18
000
FTUS41 KPBZ 232200 AAC
TAFBVI
TAF AMD
KBVI 232239Z 2323/2418 33012KT P6SM BKN025
      TEMPO 2323/2402 5SM BR BKN010
     FM240800 34006KT 5SM BR BKN010
     FM241400 36008KT P6SM BKN035=

USA.gov is the U.S. government's official web portal to all federal, state and local government web resources and services.